Terminal Aerodrome Forecast
Issued by NWS

Home | Current Version | Previous Version | Text Only | Print | Product List | Glossary On
Versions: 1 2 3 4 5 6 7 8 9 10 11 12 13 14 15 16 17 18 19 20 21 22 23 24 25 26 27 28 29 30 31 32 33 34 35 36 37 38 39
743
FTUS41 KBOX 240622 AAB
TAFFMH
TAF AMD
KFMH 240622Z 2406/2506 04010KT P6SM OVC007
     FM241000 04006KT 2SM BR VCSH OVC003
     FM241700 01005KT P6SM OVC010
     FM242000 31005KT P6SM OVC015
     FM250100 VRB03KT 2SM BR OVC020
     FM250300 25004KT 1SM BR OVC025
      AMD NOT SKED=

USA.gov is the U.S. government's official web portal to all federal, state and local government web resources and services.